Time;durP1;ratioP1;P1;durP2;ratioP2;P2;SDS_P1;SDS_P2;PMS_P1;PMS_P2;Temp;Humidity;BMP_temperature;BMP_pressure;BME280_temperature;BME280_humidity;BME280_pressure;Samples;Min_cycle;Max_cycle;Signal;HPM_P1;HPM_P2
2022/04/25 00:00:31;;;;;;;0.22;0.20;;;;;;;22.10;44.66;98536.38;5112847;28;20387;-57
2022/04/25 00:02:58;;;;;;;0.10;0.10;;;;;;;22.13;44.72;98534.78;5112878;28;20109;-57
2022/04/25 00:05:24;;;;;;;0.30;0.25;;;;;;;22.13;44.41;98529.19;5112471;28;20052;-57
2022/04/25 00:07:49;;;;;;;0.30;0.20;;;;;;;22.14;44.73;98534.38;5112583;28;20036;-57
2022/04/25 00:10:14;;;;;;;0.55;0.22;;;;;;;22.11;44.83;98532.41;5112530;28;20046;-57
2022/04/25 00:12:40;;;;;;;0.47;0.22;;;;;;;22.12;44.48;98531.19;5112582;28;20036;-57
2022/04/25 00:15:07;;;;;;;0.30;0.20;;;;;;;22.12;44.48;98539.56;5112583;28;20048;-57
2022/04/25 00:17:32;;;;;;;0.17;0.10;;;;;;;22.11;44.61;98539.97;5112494;28;20050;-57
2022/04/25 00:19:58;;;;;;;0.22;0.20;;;;;;;22.10;44.76;98533.59;5112735;28;20031;-57
2022/04/25 00:22:23;;;;;;;0.20;0.20;;;;;;;22.10;44.85;98538.38;5112591;28;20082;-57
2022/04/25 00:24:50;;;;;;;0.10;0.10;;;;;;;22.11;44.64;98540.75;5112528;28;20048;-57
2022/04/25 00:27:16;;;;;;;0.82;0.40;;;;;;;22.12;44.64;98549.91;5112655;28;20048;-57
2022/04/25 00:29:41;;;;;;;0.25;0.20;;;;;;;22.11;44.70;98532.41;5112532;28;20572;-57
2022/04/25 00:32:08;;;;;;;0.50;0.20;;;;;;;22.08;44.78;98533.22;5112097;28;20051;-57
2022/04/25 00:34:34;;;;;;;0.17;0.17;;;;;;;22.11;44.47;98539.97;5112317;28;20040;-57
2022/04/25 00:37:00;;;;;;;0.40;0.20;;;;;;;22.09;44.66;98532.03;5112374;28;20412;-57
2022/04/25 00:39:25;;;;;;;0.20;0.20;;;;;;;22.09;44.72;98531.22;5112072;28;20529;-57
2022/04/25 00:41:50;;;;;;;0.20;0.20;;;;;;;22.10;44.73;98533.59;5112060;28;20044;-57
2022/04/25 00:44:16;;;;;;;0.55;0.30;;;;;;;22.09;44.71;98536.81;5112137;28;20130;-57
2022/04/25 00:46:43;;;;;;;0.10;0.10;;;;;;;22.09;44.66;98536.81;5112050;28;20036;-57
2022/04/25 00:49:08;;;;;;;0.15;0.10;;;;;;;22.11;44.65;98535.19;5112052;28;20052;-57
2022/04/25 00:51:34;;;;;;;0.20;0.17;;;;;;;22.11;44.83;98537.19;5111941;28;20036;-57
2022/04/25 00:53:59;;;;;;;0.20;0.15;;;;;;;22.11;44.67;98539.97;5111945;28;20494;-57
2022/04/25 00:56:26;;;;;;;0.35;0.15;;;;;;;22.09;44.58;98531.22;5111671;28;20052;-57
2022/04/25 00:58:52;;;;;;;0.20;0.20;;;;;;;22.10;44.82;98532.81;5110927;28;20043;-57
2022/04/25 01:01:18;;;;;;;0.75;0.20;;;;;;;22.10;44.74;98535.59;5111929;28;20121;-59
2022/04/25 01:03:43;;;;;;;0.10;0.10;;;;;;;22.09;44.75;98537.59;5111688;28;20043;-59
2022/04/25 01:06:09;;;;;;;0.30;0.20;;;;;;;22.09;44.41;98539.59;5109375;28;20043;-59
2022/04/25 01:08:37;;;;;;;1.10;0.20;;;;;;;22.09;44.86;98531.22;5111639;28;20050;-59
2022/04/25 01:11:03;;;;;;;0.20;0.20;;;;;;;22.07;44.75;98539.16;5111748;28;20122;-59
2022/04/25 01:13:29;;;;;;;0.63;0.20;;;;;;;22.08;44.78;98535.19;5111724;28;20052;-59
2022/04/25 01:15:54;;;;;;;0.30;0.20;;;;;;;22.09;44.57;98532.03;5111545;28;20043;-59
2022/04/25 01:18:20;;;;;;;0.20;0.20;;;;;;;22.08;44.73;98537.97;5111642;28;20036;-59
2022/04/25 01:20:45;;;;;;;0.10;0.10;;;;;;;22.08;44.95;98535.19;5111396;28;20087;-59
2022/04/25 01:28:46;;;;;;;0.20;0.20;;;;;;;22.07;44.75;98528.00;5111292;28;20144;-58
2022/04/25 01:31:11;;;;;;;0.28;0.17;;;;;;;22.07;44.90;98528.78;5111435;28;20123;-57
2022/04/25 01:33:37;;;;;;;0.65;0.30;;;;;;;22.08;44.60;98529.63;5104432;28;20036;-57
2022/04/25 01:36:03;;;;;;;0.20;0.20;;;;;;;22.07;44.76;98528.78;5090561;28;20136;-59
2022/04/25 01:38:28;;;;;;;0.98;0.40;;;;;;;22.07;44.61;98522.44;5090765;28;20048;-59
2022/04/25 01:40:54;;;;;;;0.47;0.30;;;;;;;22.08;44.99;98521.25;5072563;28;20073;-59
2022/04/25 01:43:19;;;;;;;0.20;0.20;;;;;;;22.06;44.61;98526.41;5089805;28;20074;-57
2022/04/25 01:45:44;;;;;;;0.32;0.20;;;;;;;22.07;44.77;98522.44;5091011;28;20048;-57
2022/04/25 01:48:10;;;;;;;0.30;0.30;;;;;;;22.08;45.06;98524.03;5090698;28;20044;-57
2022/04/25 01:50:35;;;;;;;0.20;0.13;;;;;;;22.06;45.04;98523.63;5090665;28;20044;-57
2022/04/25 01:53:01;;;;;;;0.20;0.20;;;;;;;22.07;44.82;98522.44;5090330;28;20469;-58
2022/04/25 01:55:26;;;;;;;0.70;0.30;;;;;;;22.05;44.99;98517.28;5102426;28;20495;-57
2022/04/25 01:57:51;;;;;;;0.30;0.20;;;;;;;22.06;45.09;98516.06;5110660;28;20388;-57
2022/04/25 02:00:17;;;;;;;0.22;0.10;;;;;;;22.06;44.92;98516.06;5110816;28;20059;-57
2022/04/25 02:02:42;;;;;;;0.55;0.30;;;;;;;22.06;45.02;98516.06;5110935;28;20440;-57
2022/04/25 02:05:08;;;;;;;0.30;0.20;;;;;;;22.05;45.09;98520.06;5110621;28;20042;-57
2022/04/25 02:07:34;;;;;;;0.43;0.22;;;;;;;22.06;45.00;98515.28;5110652;28;20446;-57
2022/04/25 02:09:59;;;;;;;0.20;0.20;;;;;;;22.05;45.07;98508.13;5110541;28;20054;-57
2022/04/25 02:12:25;;;;;;;0.35;0.20;;;;;;;22.04;44.97;98510.13;5110552;28;20085;-57
2022/04/25 02:14:50;;;;;;;0.20;0.20;;;;;;;22.06;44.78;98518.06;5110620;28;20046;-57
2022/04/25 02:17:16;;;;;;;0.28;0.10;;;;;;;22.07;44.74;98509.31;5110568;28;20039;-57
2022/04/25 02:19:44;;;;;;;0.10;0.10;;;;;;;22.07;44.71;98508.50;5110579;28;20542;-57
2022/04/25 02:22:11;;;;;;;0.20;0.20;;;;;;;22.06;44.69;98506.94;5110544;28;20047;-57
2022/04/25 02:24:40;;;;;;;0.70;0.22;;;;;;;22.07;44.88;98511.28;5110567;28;20040;-57
2022/04/25 02:27:06;;;;;;;0.25;0.20;;;;;;;22.06;45.02;98513.28;5110475;28;20629;-57
2022/04/25 02:29:33;;;;;;;0.35;0.20;;;;;;;22.05;44.86;98511.72;5110466;28;20051;-59
2022/04/25 02:32:00;;;;;;;0.52;0.20;;;;;;;22.05;44.77;98502.56;5110442;28;20043;-57
2022/04/25 02:34:25;;;;;;;0.20;0.20;;;;;;;22.07;44.93;98508.50;5110372;28;20048;-57
2022/04/25 02:36:51;;;;;;;0.10;0.10;;;;;;;22.04;44.58;98503.75;5110240;28;20047;-57
2022/04/25 02:39:16;;;;;;;0.22;0.10;;;;;;;22.07;44.94;98502.94;5110223;28;20039;-59
2022/04/25 02:41:42;;;;;;;0.20;0.20;;;;;;;22.05;44.87;98494.22;5110207;28;20047;-59
2022/04/25 02:44:07;;;;;;;0.43;0.30;;;;;;;22.06;44.93;98498.56;5110220;28;20046;-59
2022/04/25 02:46:32;;;;;;;0.13;0.13;;;;;;;22.06;45.01;98501.34;5110145;28;20040;-59
2022/04/25 02:48:58;;;;;;;0.20;0.20;;;;;;;22.05;45.02;98503.34;5109963;28;20131;-57
2022/04/25 02:51:23;;;;;;;0.65;0.20;;;;;;;22.05;44.88;98502.56;5110152;28;20134;-57
2022/04/25 02:53:49;;;;;;;0.10;0.10;;;;;;;22.06;44.78;98504.16;5110090;28;20039;-57
2022/04/25 02:56:14;;;;;;;0.20;0.20;;;;;;;22.06;44.59;98498.56;5109987;28;20035;-57
2022/04/25 02:58:40;;;;;;;0.20;0.20;;;;;;;22.06;44.65;98495.78;5109971;28;20043;-57
2022/04/25 03:01:06;;;;;;;0.80;0.28;;;;;;;22.07;44.88;98505.72;5110162;28;20047;-57
2022/04/25 03:03:34;;;;;;;0.32;0.30;;;;;;;22.04;44.77;98507.34;5109994;28;20499;-57
2022/04/25 03:06:01;;;;;;;0.20;0.20;;;;;;;22.04;45.06;98507.34;5110114;28;20085;-57
2022/04/25 03:08:27;;;;;;;0.43;0.20;;;;;;;22.04;44.73;98506.56;5109916;28;20040;-57
2022/04/25 03:10:54;;;;;;;0.20;0.20;;;;;;;22.05;44.86;98510.91;5109864;28;20044;-57
2022/04/25 03:13:21;;;;;;;1.13;0.20;;;;;;;22.04;44.88;98507.34;5109713;28;20134;-57
2022/04/25 03:15:47;;;;;;;0.20;0.20;;;;;;;22.03;44.78;98505.75;5109635;28;20518;-58
2022/04/25 03:18:15;;;;;;;0.20;0.10;;;;;;;22.05;44.78;98513.69;5109768;28;20156;-57
2022/04/25 03:20:48;;;;;;;0.47;0.30;;;;;;;22.03;44.73;98508.53;5109808;28;20072;-57
2022/04/25 03:23:14;;;;;;;0.15;0.15;;;;;;;22.05;44.83;98508.13;5109744;28;20070;-57
2022/04/25 03:25:41;;;;;;;0.22;0.20;;;;;;;22.04;45.17;98512.13;5109853;28;20039;-58
2022/04/25 03:28:06;;;;;;;0.10;0.10;;;;;;;22.03;44.81;98507.75;5109918;28;20415;-59
2022/04/25 03:30:32;;;;;;;0.20;0.20;;;;;;;22.04;45.19;98509.34;5109759;28;20517;-59
2022/04/25 03:32:58;;;;;;;0.10;0.10;;;;;;;22.02;45.17;98509.75;5109637;28;20039;-57
2022/04/25 03:35:24;;;;;;;0.30;0.20;;;;;;;22.04;44.83;98512.13;5109523;28;20135;-59
2022/04/25 03:37:51;;;;;;;0.10;0.10;;;;;;;22.01;45.16;98502.59;5109552;28;20043;-59
2022/04/25 03:40:17;;;;;;;0.15;0.15;;;;;;;22.02;45.02;98504.19;5109361;28;20411;-59
2022/04/25 03:42:44;;;;;;;0.13;0.13;;;;;;;22.03;45.19;98504.97;5109410;28;20518;-59
2022/04/25 03:45:11;;;;;;;0.28;0.17;;;;;;;22.03;44.80;98507.75;5109607;28;20044;-57
2022/04/25 03:47:41;;;;;;;0.20;0.20;;;;;;;22.01;45.20;98508.16;5109551;28;20419;-57
2022/04/25 03:50:08;;;;;;;0.43;0.10;;;;;;;22.02;44.85;98506.97;5109200;28;20079;-57
2022/04/25 03:52:37;;;;;;;0.10;0.10;;;;;;;22.02;45.11;98515.31;5108400;28;20139;-57
2022/04/25 03:57:52;;;;;;;0.17;0.10;;;;;;;21.99;44.99;98516.91;5108713;28;20080;-57
2022/04/25 04:00:18;;;;;;;0.28;0.10;;;;;;;22.04;45.17;98517.69;5109198;28;20051;-57
2022/04/25 04:02:43;;;;;;;0.10;0.10;;;;;;;22.03;45.09;98521.69;5109346;28;20039;-59
2022/04/25 04:05:09;;;;;;;0.30;0.20;;;;;;;22.02;45.00;98522.88;5109158;28;20115;-59
2022/04/25 04:07:35;;;;;;;0.43;0.20;;;;;;;22.03;45.19;98527.25;5111099;28;20040;-59
2022/04/25 04:10:00;;;;;;;0.40;0.22;;;;;;;22.04;45.22;98520.47;5112682;28;20599;-59
2022/04/25 04:12:34;;;;;;;0.13;0.13;;;;;;;22.03;45.10;98528.03;5112558;28;20074;-59
2022/04/25 04:15:02;;;;;;;0.28;0.17;;;;;;;22.05;45.10;98538.75;5112694;28;20131;-59
2022/04/25 04:17:28;;;;;;;0.20;0.20;;;;;;;22.03;44.91;98532.81;5112525;28;20092;-59
2022/04/25 04:19:53;;;;;;;0.28;0.20;;;;;;;22.02;45.00;98522.88;5112532;28;20052;-59
2022/04/25 04:22:21;;;;;;;0.30;0.20;;;;;;;22.02;45.26;98531.22;5112354;28;20040;-59
2022/04/25 04:24:47;;;;;;;0.50;0.30;;;;;;;22.05;44.97;98527.63;5112234;28;20039;-59
2022/04/25 04:27:14;;;;;;;0.38;0.30;;;;;;;22.04;44.98;98523.25;5112468;28;20043;-59
2022/04/25 04:29:40;;;;;;;0.20;0.20;;;;;;;22.03;45.26;98530.03;5112453;28;20498;-59
2022/04/25 04:32:07;;;;;;;0.30;0.20;;;;;;;22.02;45.28;98532.03;5112562;28;20499;-59
2022/04/25 04:34:34;;;;;;;0.20;0.20;;;;;;;22.02;45.25;98534.81;5112469;28;20056;-59
2022/04/25 04:37:00;;;;;;;0.30;0.20;;;;;;;22.02;45.30;98532.03;5112460;28;20055;-59
2022/04/25 04:39:27;;;;;;;0.28;0.28;;;;;;;22.02;45.03;98531.22;5112229;28;20134;-59
2022/04/25 04:41:52;;;;;;;0.22;0.22;;;;;;;22.01;45.22;98529.66;5112356;28;20044;-59
2022/04/25 04:44:17;;;;;;;0.43;0.30;;;;;;;22.03;44.99;98527.25;5112191;28;20483;-59
2022/04/25 04:46:43;;;;;;;0.40;0.30;;;;;;;22.05;45.10;98530.41;5112160;28;20092;-57
2022/04/25 04:49:08;;;;;;;0.30;0.30;;;;;;;22.04;45.06;98531.59;5111902;28;20040;-59
2022/04/25 04:51:34;;;;;;;0.30;0.30;;;;;;;22.03;45.25;98532.81;5111960;28;20395;-59
2022/04/25 04:54:00;;;;;;;0.47;0.38;;;;;;;22.03;45.25;98543.94;5111863;28;20124;-59
2022/04/25 04:56:32;;;;;;;0.22;0.20;;;;;;;22.01;45.09;98538.00;5111975;28;20044;-59
2022/04/25 04:58:59;;;;;;;0.47;0.30;;;;;;;22.01;45.04;98541.56;5112168;28;20050;-59
2022/04/25 05:01:26;;;;;;;0.52;0.40;;;;;;;22.03;45.17;98555.09;5111929;28;20419;-58
2022/04/25 05:03:52;;;;;;;0.50;0.40;;;;;;;22.03;45.04;98549.53;5111675;28;20460;-57
2022/04/25 05:06:17;;;;;;;0.43;0.25;;;;;;;22.01;45.06;98557.50;5111845;28;20567;-57
2022/04/25 05:08:43;;;;;;;0.40;0.30;;;;;;;22.02;45.15;98559.06;5110674;28;20423;-57
2022/04/25 05:11:10;;;;;;;0.55;0.38;;;;;;;22.02;45.04;98570.22;5111689;28;20066;-59
2022/04/25 05:13:36;;;;;;;0.30;0.30;;;;;;;22.04;45.06;98562.25;5111567;28;20044;-59
2022/04/25 05:16:03;;;;;;;0.60;0.50;;;;;;;22.02;45.01;98564.66;5111436;28;20400;-59
2022/04/25 05:18:32;;;;;;;0.75;0.47;;;;;;;22.02;44.86;98565.44;5110304;28;20574;-59
2022/04/25 05:21:02;;;;;;;0.70;0.50;;;;;;;22.01;44.96;98572.22;5111453;28;20075;-59
2022/04/25 05:23:27;;;;;;;0.38;0.30;;;;;;;21.99;45.04;98567.03;5111353;28;20130;-59
2022/04/25 05:25:54;;;;;;;0.50;0.47;;;;;;;21.99;45.27;98569.81;5111427;28;20448;-59
2022/04/25 05:28:19;;;;;;;0.52;0.40;;;;;;;21.99;45.34;98575.38;5111439;28;20087;-59
2022/04/25 05:30:46;;;;;;;0.52;0.40;;;;;;;22.00;45.35;98567.81;5111232;28;20495;-59
2022/04/25 05:33:11;;;;;;;0.20;0.20;;;;;;;21.98;45.22;98559.88;5111463;28;20096;-59
2022/04/25 05:35:37;;;;;;;0.77;0.57;;;;;;;21.97;45.12;98563.06;5111367;28;20048;-59
2022/04/25 05:38:06;;;;;;;0.73;0.50;;;;;;;21.96;45.20;98555.91;5111270;28;20044;-59
2022/04/25 05:40:31;;;;;;;0.65;0.50;;;;;;;21.96;45.24;98565.06;5111049;28;20077;-59
2022/04/25 05:42:58;;;;;;;0.57;0.50;;;;;;;21.97;45.25;98574.19;5111328;28;20140;-59
2022/04/25 05:45:25;;;;;;;0.40;0.40;;;;;;;21.97;45.56;98572.19;5111326;28;20048;-58
2022/04/25 05:47:54;;;;;;;0.93;0.50;;;;;;;22.01;45.45;98575.00;5111038;28;20180;-58
2022/04/25 05:53:04;;;;;;;33.78;1.65;;;;;;;22.02;45.67;98584.13;5111024;28;20187;-58
2022/04/25 05:55:30;;;;;;;13.40;1.27;;;;;;;22.02;45.26;98584.13;5110902;28;20036;-58
2022/04/25 05:57:56;;;;;;;15.00;1.35;;;;;;;22.01;45.31;98583.34;5111114;28;20555;-58
2022/04/25 06:00:22;;;;;;;17.00;1.63;;;;;;;22.02;45.13;98582.16;5111097;28;20047;-58
2022/04/25 06:02:47;;;;;;;25.90;1.77;;;;;;;22.00;45.49;98584.50;5111032;28;20658;-58
2022/04/25 06:05:15;;;;;;;10.38;1.30;;;;;;;22.02;45.20;98581.34;5110844;28;20059;-58
2022/04/25 06:07:41;;;;;;;17.15;1.17;;;;;;;22.02;45.27;98589.72;5110698;28;20044;-59
2022/04/25 06:10:08;;;;;;;11.48;1.30;;;;;;;22.02;45.34;98590.50;5110590;28;20058;-59
2022/04/25 06:12:39;;;;;;;5.85;1.13;;;;;;;22.02;45.09;98586.94;5110615;28;20140;-58
2022/04/25 06:15:06;;;;;;;17.60;2.10;;;;;;;22.01;45.05;98590.91;5110572;28;20204;-58
2022/04/25 06:17:31;;;;;;;9.75;0.93;;;;;;;22.03;44.93;98599.66;5108959;28;20051;-59
2022/04/25 06:19:57;;;;;;;6.63;0.80;;;;;;;22.03;45.28;98602.44;5109781;28;20032;-59
2022/04/25 06:22:22;;;;;;;6.05;1.05;;;;;;;22.04;45.12;98601.22;5108870;28;20138;-59
2022/04/25 06:24:48;;;;;;;3.85;0.77;;;;;;;22.02;44.81;98600.84;5110076;28;20051;-57
2022/04/25 06:27:14;;;;;;;2.92;0.90;;;;;;;22.04;44.86;98598.44;5110466;28;20050;-58
2022/04/25 06:29:42;;;;;;;2.15;0.68;;;;;;;22.02;45.13;98601.63;5110057;28;20104;-57
2022/04/25 06:32:08;;;;;;;2.58;0.63;;;;;;;22.03;44.87;98600.44;5110353;28;20427;-57
2022/04/25 06:34:33;;;;;;;1.52;0.70;;;;;;;22.04;45.27;98607.59;5110313;28;20093;-57
2022/04/25 06:36:59;;;;;;;3.38;0.90;;;;;;;22.16;44.66;98614.75;5110319;28;20050;-58
2022/04/25 06:39:24;;;;;;;3.13;1.00;;;;;;;22.29;44.76;98610.34;5109844;28;20047;-58
2022/04/25 06:41:50;;;;;;;2.10;1.25;;;;;;;22.23;45.17;98614.72;5110240;28;20047;-57
2022/04/25 06:44:16;;;;;;;6.60;1.77;;;;;;;22.17;45.45;98607.97;5110252;28;20031;-58
2022/04/25 06:46:42;;;;;;;10.43;1.52;;;;;;;22.11;45.16;98607.59;5110006;28;20097;-57
2022/04/25 06:49:27;;;;;;;2.05;1.30;;;;;;;22.09;45.34;98617.56;5110162;28;20562;-57
2022/04/25 06:51:58;;;;;;;2.20;1.20;;;;;;;22.06;45.47;98613.53;5107067;28;20497;-58
2022/04/25 06:54:26;;;;;;;2.22;1.00;;;;;;;22.07;46.01;98611.56;5107385;28;20051;-58
2022/04/25 06:56:56;;;;;;;19.58;1.35;;;;;;;22.04;46.02;98613.16;5098727;28;20567;-58
2022/04/25 06:59:22;;;;;;;8.68;4.22;;;;;;;22.26;45.30;98613.91;5106676;28;20115;-59
2022/04/25 07:01:51;;;;;;;8.27;5.18;;;;;;;22.34;45.21;98625.81;5099338;28;20040;-60
2022/04/25 07:04:18;;;;;;;3.88;2.47;;;;;;;22.29;45.46;98618.69;5093969;28;20143;-59
2022/04/25 07:06:44;;;;;;;7.20;2.97;;;;;;;22.22;46.04;98621.50;5106422;28;20100;-58
2022/04/25 07:09:13;;;;;;;4.82;2.50;;;;;;;22.20;46.31;98621.09;5092349;28;20048;-57
2022/04/25 07:11:44;;;;;;;3.42;1.88;;;;;;;22.16;47.01;98620.31;5101427;28;20056;-57
2022/04/25 07:14:17;;;;;;;3.25;1.60;;;;;;;22.13;47.07;98615.53;5101610;28;20660;-57
2022/04/25 07:16:48;;;;;;;4.43;1.60;;;;;;;22.13;47.01;98615.53;5105104;28;20047;-57
2022/04/25 07:19:13;;;;;;;3.60;1.60;;;;;;;22.12;47.07;98613.97;5097299;28;20667;-57
2022/04/25 07:29:51;;;;;;;2.92;1.30;;;;;;;22.12;47.76;98625.91;5105502;28;20187;-57
2022/04/25 07:32:18;;;;;;;2.72;1.33;;;;;;;22.12;47.59;98622.31;5100433;28;20036;-58
2022/04/25 07:34:46;;;;;;;2.92;1.30;;;;;;;22.11;47.76;98620.72;5102812;28;20130;-59
2022/04/25 07:37:12;;;;;;;4.30;1.30;;;;;;;22.10;48.14;98627.50;5104799;28;20047;-60
2022/04/25 07:39:37;;;;;;;2.15;1.52;;;;;;;22.12;48.13;98627.88;5105820;28;20051;-56
2022/04/25 07:42:04;;;;;;;2.03;1.00;;;;;;;22.13;48.15;98632.25;5106561;28;20039;-56
2022/04/25 07:44:30;;;;;;;2.17;1.05;;;;;;;22.14;48.02;98640.19;5108412;28;20571;-56
2022/04/25 07:46:56;;;;;;;3.70;0.95;;;;;;;22.13;47.96;98635.03;5111028;28;20064;-57
2022/04/25 07:49:22;;;;;;;1.40;0.93;;;;;;;22.13;48.26;98632.25;5088545;28;20075;-56
2022/04/25 07:51:50;;;;;;;1.67;0.90;;;;;;;22.11;47.98;98631.88;5102440;28;20111;-57
2022/04/25 07:54:16;;;;;;;1.88;1.08;;;;;;;22.11;48.04;98634.66;5107246;28;20058;-57
2022/04/25 07:56:45;;;;;;;1.83;1.10;;;;;;;22.09;48.04;98635.06;5108164;28;20506;-56
2022/04/25 07:59:11;;;;;;;2.50;0.98;;;;;;;22.10;48.19;98636.66;5100210;28;20040;-56
2022/04/25 08:01:36;;;;;;;3.10;1.30;;;;;;;22.14;47.95;98643.00;5108650;28;20483;-58
2022/04/25 08:04:02;;;;;;;2.80;1.27;;;;;;;22.13;48.11;98641.41;5110603;28;20044;-60
2022/04/25 08:06:28;;;;;;;3.00;1.17;;;;;;;22.14;48.12;98653.34;5110471;28;20047;-63
2022/04/25 08:08:55;;;;;;;3.08;1.20;;;;;;;22.16;47.89;98659.31;5109667;28;20104;-62
2022/04/25 08:11:21;;;;;;;7.90;1.20;;;;;;;22.14;47.84;98661.69;5110517;28;20607;-61
2022/04/25 08:19:35;;;;;;;2.88;0.90;;;;;;;22.16;47.92;98671.25;5015026;28;20441;-61
2022/04/25 08:22:01;;;;;;;1.60;0.88;;;;;;;22.16;47.82;98665.69;5024311;28;20605;-58
2022/04/25 08:24:26;;;;;;;7.85;0.85;;;;;;;22.20;47.95;98676.81;5029131;28;20568;-58
2022/04/25 08:26:53;;;;;;;3.00;1.10;;;;;;;22.22;47.99;98674.44;5030312;28;20060;-58
2022/04/25 08:29:19;;;;;;;5.40;0.93;;;;;;;22.23;47.74;98681.59;5021486;28;20057;-60
2022/04/25 08:31:45;;;;;;;1.73;0.77;;;;;;;22.25;47.27;98681.97;5009091;28;20042;-59
2022/04/25 08:34:10;;;;;;;2.13;0.93;;;;;;;22.24;47.15;98685.97;5017298;28;20520;-58
2022/04/25 08:36:36;;;;;;;2.15;0.98;;;;;;;22.23;46.89;98684.38;5010030;28;20690;-58
2022/04/25 08:39:03;;;;;;;3.78;0.98;;;;;;;22.21;47.11;98679.19;5027795;28;20045;-61
2022/04/25 08:41:56;;;;;;;1.10;0.77;;;;;;;22.20;47.12;98690.72;5030658;28;20178;-58
2022/04/25 08:44:24;;;;;;;1.55;0.90;;;;;;;22.24;47.24;98683.97;5008815;28;20054;-61
2022/04/25 08:46:52;;;;;;;2.05;1.00;;;;;;;22.25;47.01;98687.53;5011747;28;20087;-58
2022/04/25 08:49:19;;;;;;;5.60;0.80;;;;;;;22.26;47.09;98689.13;5024357;28;20037;-62
2022/04/25 08:51:46;;;;;;;2.10;0.90;;;;;;;22.26;47.12;98683.56;5104356;28;20082;-61
2022/04/25 08:54:13;;;;;;;1.50;0.88;;;;;;;22.25;47.20;98684.75;5104962;28;20036;-62
2022/04/25 08:56:41;;;;;;;1.48;0.90;;;;;;;22.27;47.18;98696.28;5104024;28;20091;-62
2022/04/25 08:59:07;;;;;;;1.50;0.90;;;;;;;22.28;47.18;98695.06;5101755;28;20499;-62
2022/04/25 09:01:34;;;;;;;1.13;0.80;;;;;;;22.27;47.31;98689.91;5098236;28;20877;-61
2022/04/25 09:04:01;;;;;;;3.45;1.00;;;;;;;22.27;47.22;98687.91;5101925;28;20051;-61
2022/04/25 09:06:27;;;;;;;1.75;0.95;;;;;;;22.26;47.11;98700.28;5101716;28;20093;-61
2022/04/25 09:08:52;;;;;;;1.67;1.10;;;;;;;22.27;47.27;98689.91;5102187;28;20039;-61
2022/04/25 09:14:03;;;;;;;0.90;0.70;;;;;;;22.28;47.14;98697.06;5103057;28;20070;-60
2022/04/25 09:16:29;;;;;;;1.23;0.90;;;;;;;22.28;46.95;98700.66;5103008;28;20100;-57
2022/04/25 09:18:54;;;;;;;1.80;1.08;;;;;;;22.24;47.04;98695.09;5106113;28;20043;-59
2022/04/25 09:21:20;;;;;;;1.17;0.80;;;;;;;22.29;47.28;98693.91;5107185;28;20068;-58
2022/04/25 09:23:45;;;;;;;1.02;0.70;;;;;;;22.29;47.11;98705.06;5104238;28;20559;-59
2022/04/25 09:26:16;;;;;;;1.80;0.88;;;;;;;22.29;47.13;98701.44;5107293;28;20085;-61
2022/04/25 09:28:46;;;;;;;1.20;0.80;;;;;;;22.30;47.39;98701.06;5097944;28;21420;-61
2022/04/25 09:31:16;;;;;;;1.35;0.93;;;;;;;22.31;47.32;98702.66;5097379;28;20048;-62
2022/04/25 09:33:42;;;;;;;1.25;0.80;;;;;;;22.31;47.34;98699.06;5100252;28;20043;-57
2022/04/25 09:36:09;;;;;;;1.08;0.80;;;;;;;22.33;47.64;98705.03;5105726;28;20131;-57
2022/04/25 09:38:37;;;;;;;0.93;0.70;;;;;;;22.31;47.73;98699.88;5105626;28;20077;-58
2022/04/25 09:41:07;;;;;;;2.00;0.98;;;;;;;22.37;47.66;98703.03;5104716;28;20423;-58
2022/04/25 09:43:34;;;;;;;1.17;0.80;;;;;;;22.40;47.25;98710.59;5103661;28;20787;-57
2022/04/25 09:46:06;;;;;;;1.67;0.82;;;;;;;22.76;46.77;98702.88;5105898;28;20042;-57
2022/04/25 09:48:32;;;;;;;1.52;0.90;;;;;;;23.41;45.18;98701.34;5101642;28;20558;-58
2022/04/25 09:51:02;;;;;;;1.55;0.80;;;;;;;23.91;43.97;98700.97;5103152;28;20044;-58
2022/04/25 09:53:50;;;;;;;0.90;0.70;;;;;;;24.28;43.14;98699.38;5101476;28;20048;-56
2022/04/25 09:56:20;;;;;;;2.33;0.80;;;;;;;24.55;42.37;98702.31;5102732;28;20036;-57
2022/04/25 09:59:01;;;;;;;1.30;0.77;;;;;;;24.65;42.31;98707.00;5084209;28;20043;-57
2022/04/25 10:01:28;;;;;;;3.47;0.98;;;;;;;24.74;42.17;98703.69;5095259;28;20063;-58
2022/04/25 10:03:53;;;;;;;6.20;4.85;;;;;;;24.81;42.09;98703.59;5098016;28;20042;-56
2022/04/25 10:06:21;;;;;;;7.65;6.43;;;;;;;24.87;42.01;98707.53;5092160;28;20039;-63
2022/04/25 10:08:47;;;;;;;5.85;4.47;;;;;;;24.91;41.82;98703.44;5092602;28;20043;-57
2022/04/25 10:11:13;;;;;;;7.25;3.58;;;;;;;24.93;41.79;98700.22;5101337;28;20380;-56
2022/04/25 10:13:39;;;;;;;5.60;3.20;;;;;;;24.97;41.51;98700.97;5097733;28;20055;-58
2022/04/25 10:16:04;;;;;;;3.97;2.67;;;;;;;25.06;41.60;98698.47;5102586;28;20456;-58
2022/04/25 10:18:31;;;;;;;5.00;2.22;;;;;;;25.15;41.02;98695.19;5090616;28;20044;-58
2022/04/25 10:20:58;;;;;;;3.60;1.90;;;;;;;25.16;40.98;98697.56;5087983;28;20044;-58
2022/04/25 10:23:24;;;;;;;4.88;2.20;;;;;;;25.22;40.93;98700.69;5089697;28;20187;-57
2022/04/25 10:25:55;;;;;;;2.60;1.80;;;;;;;25.23;40.74;98702.25;5095651;28;20521;-57
2022/04/25 10:28:31;;;;;;;2.60;1.80;;;;;;;25.36;40.64;98699.66;5088559;28;20048;-57
2022/04/25 10:31:18;;;;;;;2.78;1.58;;;;;;;25.45;40.52;98697.91;5100037;28;20056;-59
2022/04/25 10:33:50;;;;;;;2.65;1.52;;;;;;;25.30;40.54;98701.38;5104501;28;20115;-60
2022/04/25 10:36:37;;;;;;;2.00;1.30;;;;;;;24.56;42.02;98692.72;5108230;28;20054;-59
2022/04/25 10:39:12;;;;;;;3.17;1.50;;;;;;;24.06;42.72;98693.22;5105280;28;20519;-59
2022/04/25 10:44:28;;;;;;;3.22;1.35;;;;;;;23.45;43.94;98692.94;5089534;28;20051;-59
2022/04/25 10:47:05;;;;;;;6.00;1.50;;;;;;;23.23;44.55;98703.47;5103820;28;20035;-58
2022/04/25 10:49:31;;;;;;;1.88;1.08;;;;;;;23.16;44.68;98704.31;5101146;28;20471;-58
2022/04/25 10:51:58;;;;;;;3.58;1.10;;;;;;;23.06;44.89;98699.56;5098490;28;20043;-58
2022/04/25 10:54:27;;;;;;;2.90;1.30;;;;;;;23.02;45.38;98699.59;5054229;28;20051;-58
2022/04/25 10:57:08;;;;;;;1.90;1.10;;;;;;;22.97;45.35;98708.38;5099980;28;20043;-58
2022/04/25 10:59:34;;;;;;;1.90;1.13;;;;;;;22.98;45.46;98711.97;5093930;28;20044;-58
2022/04/25 11:01:59;;;;;;;3.67;1.20;;;;;;;22.94;45.19;98716.78;5099424;28;20415;-58
2022/04/25 11:04:25;;;;;;;4.03;1.17;;;;;;;22.95;45.15;98712.78;5098006;28;20790;-58
2022/04/25 11:07:23;;;;;;;1.77;1.05;;;;;;;22.92;45.20;98703.22;5104504;28;20052;-58
2022/04/25 11:09:50;;;;;;;1.70;1.00;;;;;;;22.95;45.01;98710.78;5109505;28;20047;-58
2022/04/25 11:12:16;;;;;;;2.00;1.23;;;;;;;22.93;44.87;98712.38;5108666;28;20608;-58
2022/04/25 11:14:58;;;;;;;2.05;0.90;;;;;;;22.93;44.98;98717.97;5108627;28;20043;-58
2022/04/25 11:17:23;;;;;;;2.30;1.10;;;;;;;22.93;45.02;98712.38;5107407;28;20050;-58
2022/04/25 11:19:56;;;;;;;2.40;1.05;;;;;;;22.92;44.82;98710.81;5109440;28;20123;-57
2022/04/25 11:22:53;;;;;;;2.90;1.23;;;;;;;22.92;44.53;98713.59;5100389;28;20499;-57
2022/04/25 11:25:27;;;;;;;1.40;1.00;;;;;;;22.94;44.63;98709.22;5101861;28;20055;-57
2022/04/25 11:28:09;;;;;;;2.95;1.00;;;;;;;22.94;44.71;98708.41;5109989;28;20078;-57
2022/04/25 11:30:34;;;;;;;1.90;1.10;;;;;;;22.96;44.52;98709.59;5108820;28;20043;-58
2022/04/25 11:33:05;;;;;;;1.80;1.08;;;;;;;22.96;44.52;98706.00;5094130;28;20035;-58
2022/04/25 11:35:31;;;;;;;2.13;1.10;;;;;;;22.97;44.73;98710.38;5094173;28;20052;-57
2022/04/25 11:37:57;;;;;;;1.70;1.05;;;;;;;22.98;44.57;98707.19;5106743;28;20040;-57
2022/04/25 11:40:23;;;;;;;1.75;1.15;;;;;;;22.98;44.79;98701.59;5111196;28;20044;-58
2022/04/25 11:42:49;;;;;;;1.30;0.90;;;;;;;23.00;45.09;98715.97;5111965;28;21426;-57
2022/04/25 11:45:14;;;;;;;1.85;1.02;;;;;;;23.01;44.82;98706.38;5110785;28;20040;-57
2022/04/25 11:47:40;;;;;;;1.48;0.95;;;;;;;23.05;44.84;98712.72;5111324;28;20406;-57
2022/04/25 11:50:08;;;;;;;1.90;1.00;;;;;;;23.04;44.70;98708.34;5105047;28;20044;-57
2022/04/25 11:52:33;;;;;;;3.25;1.20;;;;;;;23.04;44.85;98710.34;5109226;28;20454;-56
2022/04/25 11:54:59;;;;;;;2.17;0.90;;;;;;;23.04;44.77;98699.97;5111626;28;20403;-57
2022/04/25 11:57:26;;;;;;;1.52;0.90;;;;;;;23.05;44.67;98704.34;5109874;28;20042;-57
2022/04/25 12:00:12;;;;;;;1.55;0.80;;;;;;;23.05;45.12;98703.56;5107037;28;20494;-58
2022/04/25 12:02:38;;;;;;;1.55;0.90;;;;;;;23.06;44.81;98708.72;5099240;28;20036;-58
2022/04/25 12:05:07;;;;;;;1.40;0.80;;;;;;;23.06;45.02;98717.09;5109312;28;20047;-58